Time;durP1;ratioP1;P1;durP2;ratioP2;P2;SDS_P1;SDS_P2;PMS_P1;PMS_P2;Temp;Humidity;BMP_temperature;BMP_pressure;BME280_temperature;BME280_humidity;BME280_pressure;Samples;Min_cycle;Max_cycle;Signal;HPM_P1;HPM_P2
2023/01/04 00:02:18;;;;;;;14.20;7.85;;;;;;;;;;5013236;28;20018;-74
2023/01/04 00:04:44;;;;;;;3.38;1.60;;;;;;;;;;5013654;28;20085;-75
2023/01/04 00:07:10;;;;;;;9.20;3.50;;;;;;;;;;5031291;28;20026;-75
2023/01/04 00:09:36;;;;;;;3.03;1.70;;;;;;;;;;5031874;28;20017;-73
2023/01/04 00:12:02;;;;;;;5.93;2.33;;;;;;;;;;5032081;28;20036;-74
2023/01/04 00:14:28;;;;;;;4.30;2.83;;;;;;;;;;5032013;28;20021;-73
2023/01/04 00:16:54;;;;;;;7.07;3.35;;;;;;;;;;5031288;28;20110;-73
2023/01/04 00:19:20;;;;;;;10.25;5.78;;;;;;;;;;5013193;28;20535;-73
2023/01/04 00:21:46;;;;;;;10.77;5.63;;;;;;;;;;5014029;28;20018;-73
2023/01/04 00:24:14;;;;;;;6.00;2.83;;;;;;;;;;5014031;28;20044;-75
2023/01/04 00:26:40;;;;;;;7.97;4.25;;;;;;;;;;5031785;28;20025;-74
2023/01/04 00:29:07;;;;;;;5.47;1.90;;;;;;;;;;5030934;28;20029;-74
2023/01/04 00:31:33;;;;;;;3.95;1.85;;;;;;;;;;5031425;28;20022;-74
2023/01/04 00:34:00;;;;;;;2.63;1.42;;;;;;;;;;5013779;28;20031;-75
2023/01/04 00:36:27;;;;;;;4.68;1.58;;;;;;;;;;5031590;28;20017;-74
2023/01/04 00:39:09;;;;;;;3.35;1.90;;;;;;;;;;5029725;28;20362;-75
2023/01/04 00:41:45;;;;;;;4.53;1.90;;;;;;;;;;5031531;28;20013;-74
2023/01/04 00:44:12;;;;;;;2.03;1.40;;;;;;;;;;5031576;28;20037;-75
2023/01/04 00:46:38;;;;;;;3.22;1.50;;;;;;;;;;5031166;28;20030;-75
2023/01/04 00:49:05;;;;;;;3.38;1.60;;;;;;;;;;5013097;28;20029;-75
2023/01/04 00:51:32;;;;;;;4.65;1.70;;;;;;;;;;5031638;28;20017;-75
2023/01/04 00:54:00;;;;;;;3.67;1.40;;;;;;;;;;5023949;28;20021;-74
2023/01/04 00:56:27;;;;;;;3.47;1.48;;;;;;;;;;5030705;28;20112;-74
2023/01/04 00:58:54;;;;;;;2.22;1.40;;;;;;;;;;5030295;28;20025;-73
2023/01/04 01:01:20;;;;;;;3.33;1.17;;;;;;;;;;5031322;28;20029;-74
2023/01/04 01:03:46;;;;;;;1.90;1.50;;;;;;;;;;5031183;28;20010;-74
2023/01/04 01:06:12;;;;;;;4.40;1.65;;;;;;;;;;5030975;28;20029;-73
2023/01/04 01:08:38;;;;;;;6.80;1.50;;;;;;;;;;5021371;28;20057;-74
2023/01/04 01:11:07;;;;;;;2.72;1.50;;;;;;;;;;5030219;28;20399;-74
2023/01/04 01:13:33;;;;;;;5.38;1.83;;;;;;;;;;5031185;28;20467;-75
2023/01/04 01:16:07;;;;;;;4.95;2.05;;;;;;;;;;5031014;28;20021;-74
2023/01/04 01:18:33;;;;;;;3.33;1.75;;;;;;;;;;5030366;28;20032;-74
2023/01/04 01:20:59;;;;;;;4.20;1.67;;;;;;;;;;5030769;28;20503;-74
2023/01/04 01:23:25;;;;;;;3.80;1.45;;;;;;;;;;5030533;28;20025;-74
2023/01/04 01:25:51;;;;;;;4.45;1.55;;;;;;;;;;5012662;28;20109;-73
2023/01/04 01:28:17;;;;;;;2.70;1.38;;;;;;;;;;5027589;28;20509;-74
2023/01/04 01:30:43;;;;;;;3.92;2.15;;;;;;;;;;5027040;28;20057;-74
2023/01/04 01:33:10;;;;;;;3.97;1.65;;;;;;;;;;5029928;28;20082;-74
2023/01/04 01:35:36;;;;;;;3.10;1.75;;;;;;;;;;5012788;28;20399;-73
2023/01/04 01:38:02;;;;;;;4.07;1.70;;;;;;;;;;5029455;28;20104;-74
2023/01/04 01:40:28;;;;;;;2.67;1.67;;;;;;;;;;5030605;28;20105;-74
2023/01/04 01:42:54;;;;;;;3.15;1.58;;;;;;;;;;5030203;28;20076;-73
2023/01/04 01:45:32;;;;;;;4.57;1.75;;;;;;;;;;5012708;28;20107;-74
2023/01/04 01:48:12;;;;;;;5.30;2.63;;;;;;;;;;5011982;28;20029;-74
2023/01/04 01:50:49;;;;;;;5.97;2.50;;;;;;;;;;5014594;28;20024;-73
2023/01/04 01:53:15;;;;;;;4.47;2.53;;;;;;;;;;5034504;28;20029;-75
2023/01/04 01:55:43;;;;;;;5.07;3.30;;;;;;;;;;5034547;28;20033;-74
2023/01/04 01:58:11;;;;;;;5.63;2.97;;;;;;;;;;5033886;28;20022;-74
2023/01/04 02:00:37;;;;;;;5.00;2.60;;;;;;;;;;5035036;28;20025;-73
2023/01/04 02:03:18;;;;;;;3.80;2.63;;;;;;;;;;5033661;28;20263;-74
2023/01/04 02:05:44;;;;;;;5.13;2.58;;;;;;;;;;5034656;28;20033;-73
2023/01/04 02:08:12;;;;;;;7.60;2.88;;;;;;;;;;5033652;28;20025;-75
2023/01/04 02:10:38;;;;;;;5.93;3.28;;;;;;;;;;5034388;28;20104;-74
2023/01/04 02:13:06;;;;;;;5.43;2.95;;;;;;;;;;5016519;28;20132;-74
2023/01/04 02:15:37;;;;;;;6.32;3.20;;;;;;;;;;5033949;28;20084;-74
2023/01/04 02:18:09;;;;;;;5.28;2.88;;;;;;;;;;5033776;28;20408;-73
2023/01/04 02:20:47;;;;;;;8.95;3.60;;;;;;;;;;5016679;28;20026;-75
2023/01/04 02:23:32;;;;;;;6.38;3.45;;;;;;;;;;5034282;28;20045;-74
2023/01/04 02:26:04;;;;;;;5.22;3.65;;;;;;;;;;5033931;28;20037;-74
2023/01/04 02:28:49;;;;;;;9.93;4.38;;;;;;;;;;5033440;28;20057;-74
2023/01/04 02:31:14;;;;;;;6.65;3.75;;;;;;;;;;5033971;28;20031;-74
2023/01/04 02:33:40;;;;;;;8.65;3.97;;;;;;;;;;5034259;28;20387;-74
2023/01/04 02:36:22;;;;;;;8.57;4.30;;;;;;;;;;5033918;28;20040;-74
2023/01/04 02:39:07;;;;;;;6.32;3.70;;;;;;;;;;5032960;28;20060;-74
2023/01/04 02:41:38;;;;;;;6.88;4.22;;;;;;;;;;5034300;28;20100;-74
2023/01/04 02:46:58;;;;;;;5.72;3.65;;;;;;;;;;5031072;28;20276;-75
2023/01/04 02:52:08;;;;;;;7.53;3.83;;;;;;;;;;5034429;28;20032;-75
2023/01/04 02:54:35;;;;;;;7.38;3.67;;;;;;;;;;5034029;28;20508;-73
2023/01/04 02:57:07;;;;;;;8.25;3.75;;;;;;;;;;5032972;28;20025;-74
2023/01/04 02:59:33;;;;;;;6.80;3.47;;;;;;;;;;5034536;28;20099;-74
2023/01/04 03:08:27;;;;;;;5.50;3.80;;;;;;;;;;5032937;28;20040;-74
2023/01/04 03:11:01;;;;;;;6.30;3.33;;;;;;;;;;5032928;28;20017;-73
2023/01/04 03:13:37;;;;;;;6.82;4.43;;;;;;;;;;5033436;28;20479;-74
2023/01/04 03:16:12;;;;;;;8.25;3.95;;;;;;;;;;5033010;28;20028;-72
2023/01/04 03:18:42;;;;;;;7.88;4.30;;;;;;;;;;5014700;28;20017;-74
2023/01/04 03:21:09;;;;;;;6.53;3.45;;;;;;;;;;5033576;28;20013;-74
2023/01/04 03:37:48;;;;;;;8.82;3.80;;;;;;;;;;5034758;28;20216;-74
2023/01/04 03:48:58;;;;;;;10.27;4.72;;;;;;;;;;5032362;28;20047;-73
2023/01/04 03:51:33;;;;;;;8.52;5.03;;;;;;;;;;5033389;28;20028;-73
2023/01/04 03:54:11;;;;;;;12.18;7.00;;;;;;;;;;5033317;28;20071;-73
2023/01/04 03:56:40;;;;;;;8.32;6.38;;;;;;;;;;5054386;22;20037;-75
2023/01/04 03:59:07;;;;;;;12.20;6.63;;;;;;;;;;5031226;28;20097;-73
2023/01/04 04:01:33;;;;;;;9.88;6.70;;;;;;;;;;5032611;28;20021;-73
2023/01/04 04:09:28;;;;;;;13.57;9.02;;;;;;;;;;5032076;28;20064;-74
2023/01/04 04:11:54;;;;;;;16.65;7.60;;;;;;;;;;5024830;28;20499;-74
2023/01/04 04:14:20;;;;;;;12.77;7.97;;;;;;;;;;5012037;28;20030;-74
2023/01/04 04:16:46;;;;;;;13.75;7.50;;;;;;;;;;5012193;28;20032;-73
2023/01/04 04:19:12;;;;;;;11.88;7.93;;;;;;;;;;4994056;28;20443;-73
2023/01/04 04:21:38;;;;;;;14.50;8.27;;;;;;;;;;5012885;28;20022;-73
2023/01/04 04:24:04;;;;;;;14.63;9.32;;;;;;;;;;4994840;28;20571;-73
2023/01/04 04:26:30;;;;;;;14.73;9.35;;;;;;;;;;5012451;28;20033;-74
2023/01/04 04:28:56;;;;;;;16.25;9.57;;;;;;;;;;5011134;28;20025;-74
2023/01/04 04:31:22;;;;;;;12.90;10.15;;;;;;;;;;5012355;28;20468;-72
2023/01/04 04:33:48;;;;;;;12.70;9.50;;;;;;;;;;5012107;28;20380;-75
2023/01/04 04:36:14;;;;;;;15.15;10.55;;;;;;;;;;5011840;28;20030;-75
2023/01/04 04:38:41;;;;;;;17.90;10.18;;;;;;;;;;5026221;28;20021;-75
2023/01/04 04:43:52;;;;;;;17.08;11.25;;;;;;;;;;5011955;28;20087;-74
2023/01/04 04:46:19;;;;;;;16.00;11.52;;;;;;;;;;5011967;28;20067;-74
2023/01/04 04:48:45;;;;;;;15.15;10.90;;;;;;;;;;5011040;28;20026;-73
2023/01/04 04:51:11;;;;;;;16.83;10.55;;;;;;;;;;5011438;28;20630;-73
2023/01/04 04:53:37;;;;;;;16.45;11.30;;;;;;;;;;5011846;28;20018;-73
2023/01/04 04:56:03;;;;;;;18.27;11.20;;;;;;;;;;5011228;28;20448;-73
2023/01/04 04:58:29;;;;;;;17.35;10.73;;;;;;;;;;5016194;28;20155;-74
2023/01/04 05:00:55;;;;;;;15.90;11.43;;;;;;;;;;5010919;28;20022;-74
2023/01/04 05:03:21;;;;;;;17.58;11.63;;;;;;;;;;4993726;28;20049;-73
2023/01/04 05:05:47;;;;;;;16.17;11.38;;;;;;;;;;5011647;28;20068;-74
2023/01/04 05:08:13;;;;;;;15.30;10.02;;;;;;;;;;4993248;28;20022;-73
2023/01/04 05:10:39;;;;;;;19.40;12.30;;;;;;;;;;5011754;28;20022;-74
2023/01/04 05:13:07;;;;;;;18.23;11.50;;;;;;;;;;5011688;28;20320;-74
2023/01/04 05:15:37;;;;;;;17.80;10.98;;;;;;;;;;5012013;28;20038;-74
2023/01/04 05:18:05;;;;;;;17.15;11.13;;;;;;;;;;5011198;28;20117;-74
2023/01/04 05:20:31;;;;;;;17.65;11.75;;;;;;;;;;5011695;28;20026;-74
2023/01/04 05:22:57;;;;;;;18.83;12.10;;;;;;;;;;5011162;28;20033;-74
2023/01/04 05:25:23;;;;;;;17.00;11.60;;;;;;;;;;5010836;28;20100;-74
2023/01/04 05:27:49;;;;;;;17.60;11.48;;;;;;;;;;4992777;28;20487;-73
2023/01/04 05:33:00;;;;;;;15.13;10.88;;;;;;;;;;5028075;28;20037;-73
2023/01/04 05:35:27;;;;;;;18.20;10.70;;;;;;;;;;5014197;28;20034;-73
2023/01/04 05:37:53;;;;;;;16.08;10.52;;;;;;;;;;4992556;28;20029;-74
2023/01/04 05:40:19;;;;;;;17.65;11.48;;;;;;;;;;5011238;28;20375;-73
2023/01/04 05:42:45;;;;;;;23.42;11.57;;;;;;;;;;5010707;28;20101;-74
2023/01/04 05:45:11;;;;;;;17.05;11.73;;;;;;;;;;5029868;28;20108;-75
2023/01/04 05:47:37;;;;;;;18.80;10.85;;;;;;;;;;5029873;28;20028;-74
2023/01/04 05:50:03;;;;;;;16.85;12.23;;;;;;;;;;5030466;28;20070;-73
2023/01/04 05:52:29;;;;;;;23.55;12.70;;;;;;;;;;5030929;28;20395;-73
2023/01/04 05:54:56;;;;;;;19.05;13.38;;;;;;;;;;5012926;28;20387;-74
2023/01/04 05:57:22;;;;;;;19.58;12.43;;;;;;;;;;5026183;28;20407;-73
2023/01/04 05:59:48;;;;;;;16.52;12.13;;;;;;;;;;5011668;28;20021;-74
2023/01/04 06:02:21;;;;;;;19.58;12.15;;;;;;;;;;5012842;28;20140;-74
2023/01/04 06:04:47;;;;;;;18.33;12.10;;;;;;;;;;4994308;28;20037;-74
2023/01/04 06:07:14;;;;;;;21.60;12.30;;;;;;;;;;5031183;28;20038;-74
2023/01/04 06:09:40;;;;;;;15.23;11.13;;;;;;;;;;5032952;28;20021;-74
2023/01/04 06:12:06;;;;;;;17.23;11.30;;;;;;;;;;5015503;28;20056;-74
2023/01/04 06:14:32;;;;;;;16.23;10.82;;;;;;;;;;5032838;28;20498;-72
2023/01/04 06:16:58;;;;;;;16.75;10.40;;;;;;;;;;5016394;28;20086;-71
2023/01/04 06:19:24;;;;;;;15.32;11.45;;;;;;;;;;5013997;28;20464;-73
2023/01/04 06:21:50;;;;;;;15.32;11.65;;;;;;;;;;5013604;28;20085;-73
2023/01/04 06:24:17;;;;;;;16.92;11.43;;;;;;;;;;5018010;28;20052;-74
2023/01/04 06:26:43;;;;;;;16.92;11.45;;;;;;;;;;5012919;28;20026;-74
2023/01/04 06:29:09;;;;;;;18.75;10.88;;;;;;;;;;5011401;28;20085;-74
2023/01/04 06:31:35;;;;;;;16.92;10.75;;;;;;;;;;5012101;28;20029;-74
2023/01/04 06:34:01;;;;;;;15.43;10.20;;;;;;;;;;5011053;28;20045;-74
2023/01/04 06:36:28;;;;;;;17.98;10.13;;;;;;;;;;5011784;28;20477;-74
2023/01/04 06:38:56;;;;;;;15.10;11.07;;;;;;;;;;5012259;28;20030;-72
2023/01/04 06:41:22;;;;;;;14.20;9.75;;;;;;;;;;5037746;28;20437;-74
2023/01/04 06:43:48;;;;;;;15.90;10.18;;;;;;;;;;5036676;28;20025;-74
2023/01/04 06:46:14;;;;;;;15.30;10.52;;;;;;;;;;5034270;28;20087;-74
2023/01/04 06:48:40;;;;;;;18.50;11.20;;;;;;;;;;5018266;28;20025;-75
2023/01/04 06:51:06;;;;;;;15.25;10.40;;;;;;;;;;5013418;28;20072;-73
2023/01/04 06:53:32;;;;;;;18.52;10.27;;;;;;;;;;4990353;28;20057;-73
2023/01/04 06:55:59;;;;;;;16.20;11.23;;;;;;;;;;5013016;28;20034;-74
2023/01/04 06:58:25;;;;;;;19.50;11.55;;;;;;;;;;5005919;28;20014;-74
2023/01/04 07:00:51;;;;;;;15.27;10.85;;;;;;;;;;5013604;28;20024;-72
2023/01/04 07:03:17;;;;;;;17.33;11.13;;;;;;;;;;5013784;28;20022;-73
2023/01/04 07:05:44;;;;;;;20.33;11.18;;;;;;;;;;5014011;28;20032;-73
2023/01/04 07:08:10;;;;;;;19.08;11.88;;;;;;;;;;4995830;28;20044;-73
2023/01/04 07:10:36;;;;;;;14.00;10.57;;;;;;;;;;5022024;28;20018;-73
2023/01/04 07:13:02;;;;;;;17.17;10.52;;;;;;;;;;4995640;28;20523;-73
2023/01/04 07:15:28;;;;;;;17.33;11.43;;;;;;;;;;5013727;28;20034;-72
2023/01/04 07:17:54;;;;;;;15.70;11.07;;;;;;;;;;5013117;28;20029;-74
2023/01/04 07:20:20;;;;;;;19.13;11.63;;;;;;;;;;5014190;28;20245;-75
2023/01/04 07:22:46;;;;;;;15.27;10.75;;;;;;;;;;5013917;28;20381;-73
2023/01/04 07:25:12;;;;;;;17.75;10.70;;;;;;;;;;5016044;28;20425;-73
2023/01/04 07:27:38;;;;;;;15.45;10.75;;;;;;;;;;5027340;28;20029;-74
2023/01/04 07:30:05;;;;;;;17.83;11.50;;;;;;;;;;5014144;28;20026;-75
2023/01/04 07:32:31;;;;;;;18.95;11.00;;;;;;;;;;5013826;28;20403;-74
2023/01/04 07:34:57;;;;;;;15.85;9.98;;;;;;;;;;4996274;28;20068;-74
2023/01/04 07:37:23;;;;;;;14.80;10.18;;;;;;;;;;5014160;28;20065;-74
2023/01/04 07:39:49;;;;;;;11.15;7.38;;;;;;;;;;5023888;28;20101;-74
2023/01/04 07:42:17;;;;;;;11.60;6.65;;;;;;;;;;5022643;28;20032;-74
2023/01/04 07:44:43;;;;;;;3.05;2.13;;;;;;;;;;5023070;28;20395;-74
2023/01/04 07:47:09;;;;;;;2.33;1.30;;;;;;;;;;5013348;28;20029;-72
2023/01/04 07:49:36;;;;;;;2.00;1.00;;;;;;;;;;5014375;28;20109;-73
2023/01/04 07:52:02;;;;;;;2.10;1.20;;;;;;;;;;5014286;28;20105;-73
2023/01/04 07:54:28;;;;;;;3.13;1.13;;;;;;;;;;5014603;28;20041;-74
2023/01/04 07:56:54;;;;;;;3.20;1.00;;;;;;;;;;4996719;28;20400;-73
2023/01/04 07:59:20;;;;;;;1.05;0.70;;;;;;;;;;5033875;28;20018;-74
2023/01/04 08:01:47;;;;;;;2.95;1.50;;;;;;;;;;5027571;28;20018;-75
2023/01/04 08:04:13;;;;;;;1.13;0.77;;;;;;;;;;5014548;28;20101;-73
2023/01/04 08:06:40;;;;;;;1.20;0.77;;;;;;;;;;5016563;28;20034;-73
2023/01/04 08:09:06;;;;;;;2.40;1.00;;;;;;;;;;5020582;28;20030;-73
2023/01/04 08:11:33;;;;;;;1.00;0.70;;;;;;;;;;5023086;28;20018;-74
2023/01/04 08:13:59;;;;;;;1.50;1.35;;;;;;;;;;5023381;28;20030;-73
2023/01/04 08:16:32;;;;;;;3.03;1.40;;;;;;;;;;5022473;28;20030;-73
2023/01/04 08:18:59;;;;;;;1.70;1.40;;;;;;;;;;5019903;28;20022;-75
2023/01/04 08:21:27;;;;;;;1.40;0.82;;;;;;;;;;4999756;28;20022;-73
2023/01/04 08:23:53;;;;;;;1.55;0.80;;;;;;;;;;5024268;28;20104;-73
2023/01/04 08:26:23;;;;;;;1.40;0.68;;;;;;;;;;5012636;28;20646;-74
2023/01/04 08:28:49;;;;;;;2.45;1.17;;;;;;;;;;5011436;28;20439;-73
2023/01/04 08:31:16;;;;;;;1.02;0.80;;;;;;;;;;5012062;28;20266;-73
2023/01/04 08:33:43;;;;;;;2.50;0.60;;;;;;;;;;5016816;28;20025;-73
2023/01/04 08:36:19;;;;;;;7.32;1.58;;;;;;;;;;5021406;28;20112;-72
2023/01/04 08:38:46;;;;;;;0.77;0.70;;;;;;;;;;5007599;28;20025;-72
2023/01/04 08:41:12;;;;;;;1.95;0.65;;;;;;;;;;5012465;28;20436;-72
2023/01/04 08:43:38;;;;;;;2.88;0.95;;;;;;;;;;5031858;28;20040;-74
2023/01/04 08:46:04;;;;;;;1.60;0.80;;;;;;;;;;5031847;28;20025;-74
2023/01/04 08:48:31;;;;;;;8.60;0.85;;;;;;;;;;5032064;28;20025;-74
2023/01/04 08:50:58;;;;;;;2.78;0.70;;;;;;;;;;5032328;28;20067;-76
2023/01/04 08:53:24;;;;;;;3.67;0.75;;;;;;;;;;5031681;28;20056;-73
2023/01/04 08:55:51;;;;;;;3.75;1.08;;;;;;;;;;5030920;28;20099;-74
2023/01/04 08:58:17;;;;;;;2.05;0.73;;;;;;;;;;5031000;28;20036;-74
2023/01/04 09:00:43;;;;;;;2.47;0.80;;;;;;;;;;5030752;28;20372;-74
2023/01/04 09:03:09;;;;;;;2.22;0.70;;;;;;;;;;5013543;28;20473;-73
2023/01/04 09:05:35;;;;;;;1.80;0.50;;;;;;;;;;4993750;28;20097;-74
2023/01/04 09:08:01;;;;;;;1.50;0.68;;;;;;;;;;5010705;28;20034;-74
2023/01/04 09:10:27;;;;;;;1.60;0.77;;;;;;;;;;5011815;28;20054;-74
2023/01/04 09:12:53;;;;;;;1.50;0.82;;;;;;;;;;4994171;28;20026;-73
2023/01/04 09:15:19;;;;;;;1.88;1.23;;;;;;;;;;5011532;28;20018;-76
2023/01/04 09:17:45;;;;;;;1.55;1.10;;;;;;;;;;5010389;28;20022;-76
2023/01/04 09:20:11;;;;;;;1.85;0.90;;;;;;;;;;5010384;28;20030;-76
2023/01/04 09:22:38;;;;;;;2.50;1.30;;;;;;;;;;5011355;28;20490;-75
2023/01/04 09:25:04;;;;;;;3.30;1.40;;;;;;;;;;4994018;28;20035;-76
2023/01/04 09:27:33;;;;;;;1.13;0.80;;;;;;;;;;5030544;28;20036;-76
2023/01/04 09:29:59;;;;;;;1.23;0.60;;;;;;;;;;5025275;28;20026;-76
2023/01/04 09:32:25;;;;;;;3.25;0.85;;;;;;;;;;5020047;28;20076;-76
2023/01/04 09:34:51;;;;;;;2.20;0.90;;;;;;;;;;5007727;28;20042;-75
2023/01/04 09:37:18;;;;;;;1.63;0.60;;;;;;;;;;5029521;28;20349;-74
2023/01/04 09:39:46;;;;;;;3.67;1.02;;;;;;;;;;5015106;28;20073;-75
2023/01/04 09:42:17;;;;;;;0.80;0.55;;;;;;;;;;5027162;28;20022;-75
2023/01/04 09:44:45;;;;;;;1.70;0.90;;;;;;;;;;5018602;28;20025;-74
2023/01/04 09:47:14;;;;;;;2.22;0.93;;;;;;;;;;5020315;28;20025;-75
2023/01/04 09:49:43;;;;;;;1.45;0.60;;;;;;;;;;5025952;28;20059;-76
2023/01/04 09:52:09;;;;;;;1.75;1.02;;;;;;;;;;4996560;28;20049;-75
2023/01/04 09:55:07;;;;;;;2.42;0.70;;;;;;;;;;5025005;28;20149;-75
2023/01/04 09:57:36;;;;;;;2.00;0.47;;;;;;;;;;4968016;28;20045;-71
2023/01/04 10:00:07;;;;;;;0.93;0.70;;;;;;;;;;5020416;28;20116;-74
2023/01/04 10:02:42;;;;;;;0.60;0.52;;;;;;;;;;5016705;28;20034;-72
2023/01/04 10:05:10;;;;;;;3.75;0.75;;;;;;;;;;5012383;28;20030;-75
2023/01/04 10:07:36;;;;;;;0.68;0.40;;;;;;;;;;5029581;28;20546;-74
2023/01/04 10:10:04;;;;;;;0.50;0.47;;;;;;;;;;5030833;28;20063;-72
2023/01/04 10:12:40;;;;;;;0.55;0.55;;;;;;;;;;5033774;28;20126;-72
2023/01/04 10:15:25;;;;;;;1.80;0.80;;;;;;;;;;5031835;28;20028;-73
2023/01/04 10:17:57;;;;;;;0.65;0.47;;;;;;;;;;5013139;28;20022;-74
2023/01/04 10:20:42;;;;;;;0.50;0.47;;;;;;;;;;5014547;28;20392;-74
2023/01/04 10:23:27;;;;;;;1.17;0.75;;;;;;;;;;5015561;28;20050;-73
2023/01/04 10:25:57;;;;;;;1.10;0.77;;;;;;;;;;5003150;28;20113;-75
2023/01/04 10:28:41;;;;;;;1.50;0.80;;;;;;;;;;4995523;28;20026;-75
2023/01/04 10:31:13;;;;;;;1.55;0.90;;;;;;;;;;5014016;28;20488;-74
2023/01/04 10:33:42;;;;;;;0.90;0.68;;;;;;;;;;5013904;28;20026;-73
2023/01/04 10:36:19;;;;;;;3.65;0.75;;;;;;;;;;5024586;28;20088;-72
2023/01/04 10:38:46;;;;;;;1.15;0.70;;;;;;;;;;5033167;28;20104;-74
2023/01/04 10:41:15;;;;;;;2.78;0.70;;;;;;;;;;5031229;28;20029;-75
2023/01/04 10:44:04;;;;;;;1.55;0.73;;;;;;;;;;5014129;28;20030;-75
2023/01/04 10:46:34;;;;;;;2.38;0.70;;;;;;;;;;5013971;28;20092;-73
2023/01/04 10:49:21;;;;;;;3.37;0.90;;;;;;;;;;5012895;28;20037;-74
2023/01/04 10:51:54;;;;;;;2.90;0.82;;;;;;;;;;4974146;28;20513;-74
2023/01/04 10:54:24;;;;;;;2.55;0.77;;;;;;;;;;5013918;28;20030;-74
2023/01/04 10:57:10;;;;;;;0.95;0.70;;;;;;;;;;5013684;28;20037;-73
2023/01/04 10:59:47;;;;;;;2.58;0.68;;;;;;;;;;5013924;28;20014;-73
2023/01/04 11:02:25;;;;;;;2.15;1.10;;;;;;;;;;5014009;28;20371;-73
2023/01/04 11:05:13;;;;;;;0.68;0.60;;;;;;;;;;5014092;28;20579;-76
2023/01/04 11:07:43;;;;;;;1.55;0.70;;;;;;;;;;5013257;28;20711;-73
2023/01/04 11:10:14;;;;;;;1.60;0.82;;;;;;;;;;5013740;28;20057;-75
2023/01/04 11:12:40;;;;;;;1.73;0.65;;;;;;;;;;5012428;28;20021;-75
2023/01/04 11:15:06;;;;;;;1.48;0.95;;;;;;;;;;5012326;28;20029;-74
2023/01/04 11:17:33;;;;;;;0.82;0.80;;;;;;;;;;4999046;28;20391;-73
2023/01/04 11:19:59;;;;;;;1.30;0.70;;;;;;;;;;5024126;28;20028;-74
2023/01/04 11:22:31;;;;;;;2.17;1.05;;;;;;;;;;5014533;28;20105;-75
2023/01/04 11:25:02;;;;;;;2.45;1.00;;;;;;;;;;5011229;28;20033;-73
2023/01/04 11:27:29;;;;;;;1.35;0.80;;;;;;;;;;5011147;28;20141;-74
2023/01/04 11:29:56;;;;;;;0.98;0.80;;;;;;;;;;5020185;28;20029;-74
2023/01/04 11:32:35;;;;;;;3.67;1.40;;;;;;;;;;5032638;28;20029;-75
2023/01/04 11:35:01;;;;;;;1.98;1.05;;;;;;;;;;5002418;28;20032;-71
2023/01/04 11:37:32;;;;;;;2.85;0.93;;;;;;;;;;5011882;28;20029;-73
2023/01/04 11:40:11;;;;;;;2.80;1.17;;;;;;;;;;5013200;28;20018;-72
2023/01/04 11:42:37;;;;;;;2.30;1.10;;;;;;;;;;4995279;28;20029;-73
2023/01/04 11:45:03;;;;;;;1.27;0.70;;;;;;;;;;5012484;28;20009;-74
2023/01/04 11:47:29;;;;;;;1.10;0.80;;;;;;;;;;5012076;28;20112;-74
2023/01/04 11:49:55;;;;;;;2.63;1.23;;;;;;;;;;5012836;28;20104;-74
2023/01/04 11:52:29;;;;;;;1.70;0.90;;;;;;;;;;5012445;28;20030;-74
2023/01/04 11:54:55;;;;;;;1.98;1.17;;;;;;;;;;5011821;28;20494;-74
2023/01/04 11:57:21;;;;;;;1.75;1.00;;;;;;;;;;5011520;28;20045;-75
2023/01/04 12:00:07;;;;;;;3.85;0.80;;;;;;;;;;5012761;28;20017;-73
2023/01/04 12:02:33;;;;;;;1.42;1.13;;;;;;;;;;5014044;28;20022;-75
2023/01/04 12:04:59;;;;;;;1.10;0.90;;;;;;;;;;5012194;28;20062;-75
2023/01/04 12:07:32;;;;;;;2.15;1.10;;;;;;;;;;5011463;28;20049;-76
2023/01/04 12:12:53;;;;;;;0.82;0.82;;;;;;;;;;4981508;28;20033;-76
2023/01/04 12:15:27;;;;;;;1.15;1.00;;;;;;;;;;5015757;28;20049;-73
2023/01/04 12:17:56;;;;;;;1.25;1.15;;;;;;;;;;5031300;28;20522;-73
2023/01/04 12:20:24;;;;;;;0.98;0.90;;;;;;;;;;5032023;28;20098;-74
2023/01/04 12:22:50;;;;;;;2.03;1.05;;;;;;;;;;5032374;28;20396;-73
2023/01/04 12:25:22;;;;;;;2.65;1.00;;;;;;;;;;5028998;28;20030;-75
2023/01/04 12:27:49;;;;;;;3.13;1.30;;;;;;;;;;5031210;28;20087;-76
2023/01/04 12:30:35;;;;;;;2.60;1.02;;;;;;;;;;5030506;28;20021;-75
2023/01/04 12:33:21;;;;;;;3.15;1.45;;;;;;;;;;4982498;28;20088;-74
2023/01/04 12:36:01;;;;;;;1.55;0.88;;;;;;;;;;5010302;28;20087;-75
2023/01/04 12:38:47;;;;;;;4.35;1.45;;;;;;;;;;4993142;28;20389;-76
2023/01/04 12:41:13;;;;;;;4.30;1.30;;;;;;;;;;5011484;28;20072;-75
2023/01/04 12:43:39;;;;;;;0.95;0.85;;;;;;;;;;5012762;28;20049;-74
2023/01/04 12:49:27;;;;;;;4.63;1.30;;;;;;;;;;5020899;28;20289;-75
2023/01/04 12:52:08;;;;;;;1.83;0.85;;;;;;;;;;5028704;28;20060;-76
2023/01/04 12:54:45;;;;;;;1.58;1.02;;;;;;;;;;5019508;28;20111;-76
2023/01/04 12:57:31;;;;;;;1.70;1.42;;;;;;;;;;5014161;28;20034;-76
2023/01/04 13:00:03;;;;;;;1.38;1.05;;;;;;;;;;5013596;28;20026;-75
2023/01/04 13:02:35;;;;;;;1.88;1.08;;;;;;;;;;5014129;28;20021;-74
2023/01/04 13:05:21;;;;;;;1.70;0.95;;;;;;;;;;5016735;28;20060;-75
2023/01/04 13:07:51;;;;;;;2.28;1.25;;;;;;;;;;5014194;28;20041;-76
2023/01/04 13:10:17;;;;;;;2.53;0.83;;;;;;;;;;5014978;28;20034;-75
2023/01/04 13:12:46;;;;;;;3.28;1.30;;;;;;;;;;5014341;28;20113;-73
2023/01/04 13:15:19;;;;;;;3.50;1.08;;;;;;;;;;5016077;28;20041;-73
2023/01/04 13:17:45;;;;;;;1.33;1.00;;;;;;;;;;5015122;28;20018;-75
2023/01/04 13:20:20;;;;;;;2.22;1.05;;;;;;;;;;4996593;28;20061;-75
2023/01/04 13:22:49;;;;;;;1.50;1.00;;;;;;;;;;5015367;28;20052;-75
2023/01/04 13:25:17;;;;;;;2.38;0.95;;;;;;;;;;5018482;28;20299;-74
2023/01/04 13:27:59;;;;;;;1.73;1.23;;;;;;;;;;5000261;28;20064;-76
2023/01/04 13:30:24;;;;;;;;;;;;;;;;;;5016482;28;20113;-73
2023/01/04 13:32:50;;;;;;;3.45;1.10;;;;;;;;;;5015549;28;19959;-73
2023/01/04 13:35:17;;;;;;;2.45;1.27;;;;;;;;;;5014529;28;20057;-74
2023/01/04 13:37:47;;;;;;;2.10;1.30;;;;;;;;;;5012847;28;20045;-74
2023/01/04 13:40:25;;;;;;;1.10;0.68;;;;;;;;;;4995640;28;20018;-73
2023/01/04 13:43:00;;;;;;;6.00;1.58;;;;;;;;;;4995087;28;20040;-74
2023/01/04 13:45:26;;;;;;;2.60;1.33;;;;;;;;;;5011275;28;20022;-74
2023/01/04 13:47:55;;;;;;;0.93;0.77;;;;;;;;;;5010971;28;20426;-74
2023/01/04 13:50:21;;;;;;;2.10;0.70;;;;;;;;;;5011385;28;20547;-73
2023/01/04 13:52:47;;;;;;;1.58;0.60;;;;;;;;;;5011718;28;20056;-74
2023/01/04 13:55:19;;;;;;;1.23;0.70;;;;;;;;;;5011507;28;20088;-72
2023/01/04 13:57:52;;;;;;;2.17;1.00;;;;;;;;;;5010818;28;20412;-73
2023/01/04 14:00:18;;;;;;;2.20;1.30;;;;;;;;;;5011724;28;20037;-75
2023/01/04 14:02:44;;;;;;;2.20;0.82;;;;;;;;;;5011251;28;20022;-73
2023/01/04 14:05:15;;;;;;;1.92;0.60;;;;;;;;;;5011268;28;20026;-74
2023/01/04 14:07:42;;;;;;;0.68;0.63;;;;;;;;;;5010475;28;20431;-74
2023/01/04 14:10:18;;;;;;;1.02;0.50;;;;;;;;;;4993734;28;20053;-71
2023/01/04 14:12:45;;;;;;;1.95;0.70;;;;;;;;;;5012039;28;20030;-72
2023/01/04 14:15:11;;;;;;;0.88;0.68;;;;;;;;;;5011803;28;20041;-74
2023/01/04 14:17:47;;;;;;;1.27;0.75;;;;;;;;;;5011302;28;20026;-72
2023/01/04 14:20:13;;;;;;;1.65;1.02;;;;;;;;;;5012632;28;20022;-74
2023/01/04 14:22:41;;;;;;;0.85;0.70;;;;;;;;;;5012706;28;20029;-75
2023/01/04 14:25:25;;;;;;;3.90;0.82;;;;;;;;;;5011888;28;20049;-75
2023/01/04 14:27:52;;;;;;;2.40;0.75;;;;;;;;;;5010786;28;20034;-74
2023/01/04 14:30:18;;;;;;;1.55;1.02;;;;;;;;;;5011525;28;20026;-74
2023/01/04 14:32:53;;;;;;;1.33;1.10;;;;;;;;;;5011328;28;20050;-74
2023/01/04 14:35:19;;;;;;;1.23;0.80;;;;;;;;;;5011174;28;20037;-74
2023/01/04 14:37:46;;;;;;;4.43;0.70;;;;;;;;;;5010439;28;20049;-74
2023/01/04 14:40:21;;;;;;;4.15;0.90;;;;;;;;;;5011302;28;20500;-74
2023/01/04 14:42:47;;;;;;;0.95;0.57;;;;;;;;;;5010918;28;20026;-74
2023/01/04 14:45:14;;;;;;;1.95;0.47;;;;;;;;;;5011025;28;20029;-75
2023/01/04 14:47:40;;;;;;;1.92;0.80;;;;;;;;;;5010453;28;20030;-74
2023/01/04 14:50:07;;;;;;;0.75;0.47;;;;;;;;;;5010971;28;20547;-73
2023/01/04 14:52:33;;;;;;;1.48;0.90;;;;;;;;;;5011051;28;20040;-73
2023/01/04 14:55:03;;;;;;;1.42;0.60;;;;;;;;;;5010947;28;20384;-73
2023/01/04 14:57:29;;;;;;;0.60;0.50;;;;;;;;;;5010274;28;20108;-74
2023/01/04 14:59:55;;;;;;;0.77;0.65;;;;;;;;;;5014133;28;20018;-72
2023/01/04 15:02:22;;;;;;;1.92;1.05;;;;;;;;;;5014450;28;20026;-74
2023/01/04 15:04:48;;;;;;;0.73;0.57;;;;;;;;;;5014662;28;20156;-75
2023/01/04 15:07:44;;;;;;;0.77;0.57;;;;;;;;;;5014409;28;20022;-75
2023/01/04 15:10:21;;;;;;;1.42;0.73;;;;;;;;;;4998099;28;20034;-76
2023/01/04 15:12:47;;;;;;;2.25;1.00;;;;;;;;;;4996815;28;20076;-74
2023/01/04 15:15:13;;;;;;;1.60;0.70;;;;;;;;;;4997123;28;20459;-73
2023/01/04 15:17:39;;;;;;;3.35;0.70;;;;;;;;;;5013382;28;20026;-74
2023/01/04 15:20:05;;;;;;;1.90;1.00;;;;;;;;;;5014802;28;20052;-73
2023/01/04 15:22:31;;;;;;;1.25;1.00;;;;;;;;;;4997085;28;20033;-73
2023/01/04 15:24:57;;;;;;;1.88;0.95;;;;;;;;;;5014338;28;20022;-72
2023/01/04 15:27:23;;;;;;;3.13;1.20;;;;;;;;;;5013904;28;20057;-74
2023/01/04 15:29:52;;;;;;;1.58;1.08;;;;;;;;;;5012384;28;20037;-75
2023/01/04 15:32:18;;;;;;;2.03;0.90;;;;;;;;;;5013853;28;20041;-74
2023/01/04 15:34:44;;;;;;;3.35;1.05;;;;;;;;;;5014032;28;20030;-74
2023/01/04 15:37:10;;;;;;;2.83;0.90;;;;;;;;;;5013141;28;20559;-75
2023/01/04 15:39:37;;;;;;;1.45;0.70;;;;;;;;;;5013814;28;20033;-76
2023/01/04 15:44:51;;;;;;;1.90;0.90;;;;;;;;;;5015485;28;20068;-74